Time;durP1;ratioP1;P1;durP2;ratioP2;P2;SDS_P1;SDS_P2;PMS_P1;PMS_P2;Temp;Humidity;BMP_temperature;BMP_pressure;BME280_temperature;BME280_humidity;BME280_pressure;Samples;Min_cycle;Max_cycle;Signal;HPM_P1;HPM_P2
2022/10/11 00:00:36;;;;;;;11.25;3.58;;;6.10;99.90;;;;;;4953950;29;20082;-77
2022/10/11 00:03:03;;;;;;;9.38;3.25;;;6.10;99.90;;;;;;4935466;29;20036;-76
2022/10/11 00:05:28;;;;;;;9.00;3.50;;;6.10;99.90;;;;;;4925272;29;20458;-77
2022/10/11 00:07:54;;;;;;;11.80;3.55;;;6.00;99.90;;;;;;4951868;29;20027;-77
2022/10/11 00:10:20;;;;;;;12.57;3.25;;;6.00;99.90;;;;;;4954107;29;20464;-77
2022/10/11 00:12:46;;;;;;;11.52;3.30;;;6.00;99.90;;;;;;4929659;29;20442;-77
2022/10/11 00:15:14;;;;;;;11.07;3.35;;;6.00;99.90;;;;;;4935094;29;20043;-77
2022/10/11 00:17:40;;;;;;;11.35;3.50;;;6.00;99.90;;;;;;4940491;29;20094;-77
2022/10/11 00:20:06;;;;;;;11.40;3.70;;;6.00;99.90;;;;;;4949066;29;20051;-77
2022/10/11 00:22:33;;;;;;;9.48;3.13;;;5.90;99.90;;;;;;4951848;29;20501;-77
2022/10/11 00:24:58;;;;;;;7.32;3.55;;;6.00;99.90;;;;;;4953679;29;20046;-77
2022/10/11 00:27:24;;;;;;;8.40;2.80;;;5.90;99.90;;;;;;4936939;29;20045;-77
2022/10/11 00:29:49;;;;;;;12.02;3.75;;;5.90;99.90;;;;;;4953592;29;20083;-77
2022/10/11 00:32:15;;;;;;;7.10;3.03;;;5.90;99.90;;;;;;4944620;29;20028;-77
2022/10/11 00:34:41;;;;;;;9.00;3.22;;;5.90;99.90;;;;;;4952699;29;20514;-77
2022/10/11 00:37:06;;;;;;;10.02;3.60;;;5.90;99.90;;;;;;4949747;29;20051;-77
2022/10/11 00:39:32;;;;;;;9.85;3.45;;;5.80;99.90;;;;;;4948446;29;20074;-77
2022/10/11 00:41:58;;;;;;;10.10;3.67;;;5.80;99.90;;;;;;4936434;29;20461;-77
2022/10/11 00:44:25;;;;;;;9.55;3.90;;;5.80;99.90;;;;;;4944312;29;20501;-77
2022/10/11 00:46:56;;;;;;;14.25;3.42;;;5.80;99.90;;;;;;4949801;29;20039;-77
2022/10/11 00:49:35;;;;;;;9.88;3.60;;;5.80;99.90;;;;;;4952212;29;20038;-77
2022/10/11 00:52:27;;;;;;;9.18;3.47;;;5.80;99.90;;;;;;4953224;29;20054;-77
2022/10/11 00:54:54;;;;;;;10.40;3.25;;;5.80;99.90;;;;;;4953313;29;20130;-77
2022/10/11 00:57:23;;;;;;;10.98;3.70;;;5.80;99.90;;;;;;4936126;29;20035;-77
2022/10/11 00:59:52;;;;;;;15.93;4.25;;;5.80;99.90;;;;;;4937213;29;20480;-77
2022/10/11 01:02:19;;;;;;;12.13;3.40;;;5.80;99.90;;;;;;4936368;29;20067;-77
2022/10/11 01:04:44;;;;;;;14.60;3.92;;;5.80;99.90;;;;;;4952905;29;20039;-77
2022/10/11 01:07:10;;;;;;;11.15;3.60;;;5.70;99.90;;;;;;4945712;29;20042;-77
2022/10/11 01:09:36;;;;;;;7.57;3.10;;;5.80;99.90;;;;;;4948264;29;20042;-77
2022/10/11 01:12:06;;;;;;;11.90;3.45;;;5.80;99.90;;;;;;4951356;29;20047;-77
2022/10/11 01:14:50;;;;;;;9.07;3.42;;;5.80;99.90;;;;;;4936946;29;20043;-77
2022/10/11 01:17:47;;;;;;;8.90;3.60;;;5.70;99.90;;;;;;4933535;29;20046;-77
2022/10/11 01:20:25;;;;;;;9.48;3.50;;;5.70;99.90;;;;;;4946288;29;20047;-77
2022/10/11 01:23:27;;;;;;;10.02;3.30;;;5.70;99.90;;;;;;4952073;29;20468;-77
2022/10/11 01:26:14;;;;;;;10.95;3.30;;;5.70;99.90;;;;;;4944582;29;20042;-77
2022/10/11 01:29:17;;;;;;;7.18;3.03;;;5.70;99.90;;;;;;4946899;29;20031;-77
2022/10/11 01:31:57;;;;;;;11.23;3.42;;;5.60;99.90;;;;;;4950559;29;20043;-77
2022/10/11 01:34:32;;;;;;;12.40;3.28;;;5.60;99.90;;;;;;4966236;28;20074;-77
2022/10/11 01:37:04;;;;;;;8.52;3.20;;;5.60;99.90;;;;;;4952666;29;20039;-77
2022/10/11 01:39:52;;;;;;;10.93;3.58;;;5.60;99.90;;;;;;4936691;29;20286;-77
2022/10/11 01:42:19;;;;;;;11.77;3.40;;;5.60;99.90;;;;;;4945758;29;20097;-77
2022/10/11 01:44:47;;;;;;;9.48;3.28;;;5.60;99.90;;;;;;4945473;29;20506;-77
2022/10/11 01:47:18;;;;;;;13.02;3.63;;;5.50;99.90;;;;;;4933212;29;20039;-77
2022/10/11 01:49:44;;;;;;;7.60;3.38;;;5.50;99.90;;;;;;4948449;29;20200;-77
2022/10/11 01:52:11;;;;;;;10.40;3.28;;;5.50;99.90;;;;;;4935708;29;20404;-77
2022/10/11 01:55:19;;;;;;;11.52;3.65;;;5.50;99.90;;;;;;4935895;29;20105;-77
2022/10/11 01:57:50;;;;;;;9.82;4.07;;;5.50;99.90;;;;;;4952406;29;20472;-77
2022/10/11 02:00:28;;;;;;;11.43;3.78;;;5.50;99.90;;;;;;4951201;29;20039;-77
2022/10/11 02:03:15;;;;;;;9.65;3.35;;;5.50;99.90;;;;;;4950225;29;20174;-77
2022/10/11 02:05:59;;;;;;;10.68;3.53;;;5.50;99.90;;;;;;4936321;29;20040;-77
2022/10/11 02:08:36;;;;;;;10.90;3.42;;;5.50;99.90;;;;;;4952428;29;20083;-77
2022/10/11 02:11:12;;;;;;;6.88;2.80;;;5.50;99.90;;;;;;4933372;29;20043;-77
2022/10/11 02:14:05;;;;;;;9.50;3.35;;;5.50;99.90;;;;;;4947997;29;20070;-77
2022/10/11 02:16:46;;;;;;;9.65;3.45;;;5.50;99.90;;;;;;4959363;28;20051;-77
2022/10/11 02:19:17;;;;;;;10.00;3.40;;;5.50;99.90;;;;;;4933242;29;20111;-77
2022/10/11 02:21:45;;;;;;;16.58;4.03;;;5.50;99.90;;;;;;4933732;29;20040;-77
2022/10/11 02:24:22;;;;;;;35.72;5.53;;;5.50;99.90;;;;;;4942475;29;20062;-77
2022/10/11 02:26:53;;;;;;;13.15;3.67;;;5.40;99.90;;;;;;4936052;29;20040;-77
2022/10/11 02:29:21;;;;;;;13.35;3.65;;;5.50;99.90;;;;;;4927352;29;20508;-77
2022/10/11 02:31:48;;;;;;;8.95;3.65;;;5.40;99.90;;;;;;4947308;29;20093;-77
2022/10/11 02:34:19;;;;;;;10.00;3.22;;;5.40;99.90;;;;;;4948037;29;20039;-77
2022/10/11 02:36:49;;;;;;;23.90;4.68;;;5.40;99.90;;;;;;4955791;29;20243;-77
2022/10/11 02:39:24;;;;;;;8.23;2.70;;;5.40;99.90;;;;;;4938801;29;20051;-77
2022/10/11 02:41:51;;;;;;;10.30;3.08;;;5.40;99.90;;;;;;4949109;29;20046;-77
2022/10/11 02:44:33;;;;;;;22.20;3.67;;;5.30;99.90;;;;;;4955482;29;20039;-77
2022/10/11 02:47:00;;;;;;;5.95;2.95;;;5.30;99.90;;;;;;4955865;29;20085;-77
2022/10/11 02:49:30;;;;;;;9.30;3.20;;;5.30;99.90;;;;;;4939544;29;20035;-77
2022/10/11 02:51:57;;;;;;;10.52;3.35;;;5.30;99.90;;;;;;4954653;29;20047;-77
2022/10/11 02:54:24;;;;;;;7.35;2.92;;;5.30;99.90;;;;;;4938648;29;20122;-77
2022/10/11 02:56:50;;;;;;;11.77;3.28;;;5.20;99.90;;;;;;4931343;29;20512;-77
2022/10/11 02:59:15;;;;;;;7.28;3.15;;;5.20;99.90;;;;;;4955315;29;20047;-77
2022/10/11 03:01:41;;;;;;;8.25;3.08;;;5.20;99.90;;;;;;4954091;29;20040;-77
2022/10/11 03:04:06;;;;;;;9.63;3.17;;;5.20;99.90;;;;;;4953293;29;20146;-77
2022/10/11 03:06:32;;;;;;;11.60;3.50;;;5.20;99.90;;;;;;4955304;29;20035;-77
2022/10/11 03:08:57;;;;;;;12.60;3.20;;;5.10;99.90;;;;;;4937337;29;20489;-77
2022/10/11 03:11:23;;;;;;;10.55;2.85;;;5.10;99.90;;;;;;4943380;29;20173;-77
2022/10/11 03:13:49;;;;;;;12.45;3.42;;;5.10;99.90;;;;;;4935506;29;20039;-77
2022/10/11 03:16:14;;;;;;;8.38;2.85;;;5.10;99.90;;;;;;4954107;29;20482;-77
2022/10/11 03:18:40;;;;;;;6.32;2.80;;;5.10;99.90;;;;;;4954326;29;20036;-77
2022/10/11 03:21:05;;;;;;;11.57;3.25;;;5.00;99.90;;;;;;4938833;29;20102;-77
2022/10/11 03:23:31;;;;;;;9.93;2.90;;;5.00;99.90;;;;;;4936541;29;20035;-77
2022/10/11 03:25:57;;;;;;;8.35;3.25;;;5.00;99.90;;;;;;4959535;28;20075;-77
2022/10/11 03:28:22;;;;;;;10.15;3.20;;;5.00;99.90;;;;;;4954630;29;20061;-77
2022/10/11 03:30:49;;;;;;;6.82;3.00;;;5.00;99.90;;;;;;4938775;29;20047;-77
2022/10/11 03:33:16;;;;;;;7.82;2.88;;;5.00;99.90;;;;;;4953189;29;20031;-77
2022/10/11 03:35:44;;;;;;;10.02;3.20;;;5.00;99.90;;;;;;4954636;29;20067;-77
2022/10/11 03:38:21;;;;;;;6.28;2.60;;;4.90;99.90;;;;;;4950943;29;20079;-77
2022/10/11 03:40:47;;;;;;;13.25;3.72;;;4.90;99.90;;;;;;4949473;28;20126;-77
2022/10/11 03:43:13;;;;;;;10.73;3.20;;;4.90;99.90;;;;;;4937085;28;20123;-77
2022/10/11 03:45:42;;;;;;;9.55;2.97;;;4.90;99.90;;;;;;4954338;29;20090;-77
2022/10/11 03:48:08;;;;;;;6.75;2.72;;;4.80;99.90;;;;;;4954548;29;20043;-77
2022/10/11 03:50:35;;;;;;;8.23;3.42;;;4.90;99.90;;;;;;4953216;29;20090;-77
2022/10/11 03:53:01;;;;;;;8.85;2.90;;;4.80;99.90;;;;;;4952027;29;20047;-77
2022/10/11 03:55:27;;;;;;;9.55;3.13;;;4.90;99.90;;;;;;4948036;29;20585;-77
2022/10/11 03:57:52;;;;;;;6.72;3.08;;;4.90;99.90;;;;;;4954070;29;20122;-77
2022/10/11 04:00:18;;;;;;;10.65;2.92;;;4.80;99.90;;;;;;4953722;29;20449;-77
2022/10/11 04:02:44;;;;;;;12.13;3.17;;;4.80;99.90;;;;;;4969597;28;20031;-77
2022/10/11 04:05:11;;;;;;;10.25;3.25;;;4.80;99.90;;;;;;4952865;29;20090;-77
2022/10/11 04:07:37;;;;;;;11.38;3.22;;;4.90;99.90;;;;;;4937909;29;20163;-77
2022/10/11 04:10:04;;;;;;;9.55;3.30;;;4.80;99.90;;;;;;4953942;29;20039;-77
2022/10/11 04:12:29;;;;;;;5.35;2.63;;;4.90;99.90;;;;;;4937382;29;20061;-77
2022/10/11 04:14:55;;;;;;;7.43;3.40;;;4.90;99.90;;;;;;4952617;29;20079;-77
2022/10/11 04:17:20;;;;;;;12.48;3.08;;;4.80;99.90;;;;;;4953764;29;20397;-77
2022/10/11 04:19:46;;;;;;;5.57;2.85;;;4.80;99.90;;;;;;4952841;29;20035;-77
2022/10/11 04:22:11;;;;;;;20.80;4.28;;;4.80;99.90;;;;;;4937010;29;20047;-77
2022/10/11 04:24:37;;;;;;;8.77;3.53;;;4.80;99.90;;;;;;4944991;29;20043;-77
2022/10/11 04:27:03;;;;;;;14.93;4.15;;;4.80;99.90;;;;;;4945632;29;20043;-77
2022/10/11 04:29:28;;;;;;;11.27;3.38;;;4.80;99.90;;;;;;4954029;29;20074;-77
2022/10/11 04:31:54;;;;;;;8.85;3.33;;;4.80;99.90;;;;;;4936955;29;20031;-77
2022/10/11 04:34:19;;;;;;;8.23;3.38;;;4.80;99.90;;;;;;4936309;29;20146;-76
2022/10/11 04:36:45;;;;;;;13.75;4.03;;;4.80;99.90;;;;;;4953534;29;20047;-77
2022/10/11 04:39:11;;;;;;;13.32;4.47;;;4.80;99.90;;;;;;4937456;29;20054;-77
2022/10/11 04:41:37;;;;;;;10.85;4.60;;;4.80;99.90;;;;;;4937259;29;20044;-77
2022/10/11 04:44:03;;;;;;;14.75;5.47;;;4.80;99.90;;;;;;4928934;29;20396;-77
2022/10/11 04:46:29;;;;;;;14.90;4.47;;;4.80;99.90;;;;;;4935126;29;20035;-77
2022/10/11 04:48:55;;;;;;;14.43;4.90;;;4.80;99.90;;;;;;4934416;29;20035;-77
2022/10/11 04:51:21;;;;;;;15.63;5.15;;;4.90;99.90;;;;;;4930125;28;20041;-76
2022/10/11 04:53:47;;;;;;;11.57;4.72;;;4.90;99.90;;;;;;4950838;29;20039;-77
2022/10/11 04:56:15;;;;;;;11.52;5.45;;;4.90;99.90;;;;;;4952173;29;20043;-77
2022/10/11 04:58:41;;;;;;;17.30;6.30;;;4.90;99.90;;;;;;4951730;29;20054;-77
2022/10/11 05:01:08;;;;;;;22.40;6.40;;;4.90;99.90;;;;;;4945022;29;20383;-77
2022/10/11 05:03:34;;;;;;;28.50;6.32;;;4.90;99.90;;;;;;4947766;29;20531;-77
2022/10/11 05:05:59;;;;;;;8.35;4.43;;;4.90;99.90;;;;;;4952846;29;20039;-77
2022/10/11 05:08:25;;;;;;;16.13;4.75;;;4.90;99.90;;;;;;4936850;29;20064;-77
2022/10/11 05:11:02;;;;;;;9.20;5.32;;;4.90;99.90;;;;;;4937288;29;20047;-76
2022/10/11 05:13:29;;;;;;;13.60;5.97;;;4.90;99.90;;;;;;4951380;29;20363;-76
2022/10/11 05:15:55;;;;;;;14.18;5.82;;;4.90;99.90;;;;;;4935319;29;20050;-76
2022/10/11 05:18:21;;;;;;;13.18;6.30;;;5.00;99.90;;;;;;4933777;29;20039;-76
2022/10/11 05:20:47;;;;;;;14.75;5.80;;;5.00;99.90;;;;;;4930850;29;20047;-77
2022/10/11 05:23:13;;;;;;;11.88;5.80;;;5.10;99.90;;;;;;4948858;29;20036;-77
2022/10/11 05:25:39;;;;;;;15.27;6.30;;;5.00;99.90;;;;;;4931767;29;20090;-77
2022/10/11 05:28:04;;;;;;;20.88;6.07;;;5.10;99.90;;;;;;4947773;29;20038;-77
2022/10/11 05:30:30;;;;;;;18.15;6.22;;;5.10;99.90;;;;;;4952524;29;20039;-77
2022/10/11 05:32:56;;;;;;;19.90;6.93;;;5.10;99.90;;;;;;4934801;29;20066;-77
2022/10/11 05:35:21;;;;;;;18.50;5.78;;;5.10;99.90;;;;;;4931894;29;20138;-77
2022/10/11 05:37:47;;;;;;;13.07;5.57;;;5.10;99.90;;;;;;4952343;29;20042;-76
2022/10/11 05:40:13;;;;;;;11.93;4.85;;;5.10;99.90;;;;;;4927945;29;20557;-77
2022/10/11 05:42:38;;;;;;;12.30;5.05;;;5.10;99.90;;;;;;4942763;29;20062;-77
2022/10/11 05:45:05;;;;;;;12.20;4.20;;;5.10;99.90;;;;;;4944959;29;20062;-77
2022/10/11 05:47:32;;;;;;;11.70;5.00;;;5.00;99.90;;;;;;4951632;29;20466;-77
2022/10/11 05:49:58;;;;;;;13.15;5.03;;;5.00;99.90;;;;;;4934508;29;20039;-77
2022/10/11 05:52:24;;;;;;;11.63;4.70;;;5.00;99.90;;;;;;4931503;29;20038;-76
2022/10/11 05:54:49;;;;;;;10.23;5.07;;;4.90;99.90;;;;;;4951762;29;20070;-76
2022/10/11 05:57:15;;;;;;;8.13;4.00;;;4.90;99.90;;;;;;4951803;29;20042;-76
2022/10/11 05:59:41;;;;;;;22.08;5.57;;;4.90;99.90;;;;;;4944533;29;20110;-76
2022/10/11 06:02:10;;;;;;;15.02;4.97;;;4.90;99.90;;;;;;4943143;29;20036;-76
2022/10/11 06:04:36;;;;;;;8.93;4.53;;;4.90;99.90;;;;;;4952728;28;20043;-76
2022/10/11 06:07:02;;;;;;;9.90;4.28;;;4.80;99.90;;;;;;4952451;28;20379;-77
2022/10/11 06:09:29;;;;;;;29.45;6.78;;;4.90;99.90;;;;;;4947654;29;20035;-77
2022/10/11 06:11:54;;;;;;;13.23;5.60;;;4.80;99.90;;;;;;4943452;29;20118;-76
2022/10/11 06:14:20;;;;;;;13.88;4.55;;;4.80;99.90;;;;;;4952319;29;20131;-76
2022/10/11 06:16:45;;;;;;;10.77;4.70;;;4.80;99.90;;;;;;4943699;29;20604;-77
2022/10/11 06:19:11;;;;;;;8.45;4.82;;;4.80;99.90;;;;;;4951868;29;20043;-76
2022/10/11 06:21:37;;;;;;;12.18;4.72;;;4.80;99.90;;;;;;4949980;29;20031;-77
2022/10/11 06:24:03;;;;;;;11.55;5.28;;;4.80;99.90;;;;;;4940560;29;20040;-76
2022/10/11 06:26:29;;;;;;;12.50;5.63;;;4.80;99.90;;;;;;4955847;29;20035;-76
2022/10/11 06:28:55;;;;;;;11.68;4.97;;;4.80;99.90;;;;;;4954584;29;20081;-77
2022/10/11 06:31:20;;;;;;;9.43;4.72;;;4.80;99.90;;;;;;4940092;29;20090;-76
2022/10/11 06:33:46;;;;;;;14.52;5.95;;;4.80;99.90;;;;;;4940357;29;20047;-76
2022/10/11 06:36:15;;;;;;;10.82;5.13;;;4.90;99.90;;;;;;4953711;29;20046;-76
2022/10/11 06:38:41;;;;;;;8.20;4.30;;;4.90;99.90;;;;;;4954627;29;20051;-76
2022/10/11 06:41:17;;;;;;;13.55;5.63;;;4.90;99.90;;;;;;4954900;29;20039;-77
2022/10/11 06:43:43;;;;;;;16.52;5.90;;;5.00;99.90;;;;;;4955989;29;20402;-76
2022/10/11 06:46:09;;;;;;;10.27;4.93;;;5.00;99.90;;;;;;4947100;29;20739;-76
2022/10/11 06:48:39;;;;;;;17.33;6.00;;;5.00;99.90;;;;;;4938896;29;20118;-76
2022/10/11 06:51:04;;;;;;;18.35;7.20;;;5.10;99.90;;;;;;4949089;29;20077;-76
2022/10/11 06:53:30;;;;;;;15.65;6.25;;;5.10;99.90;;;;;;4934344;29;20067;-76
2022/10/11 06:56:04;;;;;;;16.48;6.65;;;5.20;99.90;;;;;;4937811;29;20039;-76
2022/10/11 06:58:30;;;;;;;17.40;6.57;;;5.30;99.90;;;;;;4955250;29;20047;-76
2022/10/11 07:01:06;;;;;;;16.33;6.57;;;5.30;99.90;;;;;;4955539;29;20043;-77
2022/10/11 07:03:32;;;;;;;16.70;6.97;;;5.40;99.90;;;;;;4938798;29;20056;-76
2022/10/11 07:06:25;;;;;;;16.02;7.00;;;5.40;99.90;;;;;;4953323;29;20557;-76
2022/10/11 07:08:51;;;;;;;17.00;7.38;;;5.60;99.90;;;;;;4952229;29;20067;-77
2022/10/11 07:11:23;;;;;;;18.08;6.75;;;5.60;99.90;;;;;;4939104;29;20094;-76
2022/10/11 07:13:56;;;;;;;16.75;6.90;;;5.70;99.90;;;;;;4955310;29;20501;-76
2022/10/11 07:16:22;;;;;;;16.92;6.82;;;5.80;99.90;;;;;;4953089;28;20090;-77
2022/10/11 07:18:52;;;;;;;21.85;8.80;;;5.80;99.90;;;;;;4951052;29;20098;-76
2022/10/11 07:21:18;;;;;;;13.27;7.35;;;5.90;99.90;;;;;;4963585;28;20031;-77
2022/10/11 07:23:44;;;;;;;16.50;6.90;;;5.90;99.90;;;;;;4948070;28;20406;-76
2022/10/11 07:26:11;;;;;;;19.48;7.28;;;5.90;99.90;;;;;;4955125;29;20043;-77
2022/10/11 07:28:38;;;;;;;16.95;7.78;;;6.00;99.90;;;;;;4955254;29;20045;-76
2022/10/11 07:31:16;;;;;;;16.88;7.50;;;6.10;99.90;;;;;;4953783;28;20043;-77
2022/10/11 07:33:42;;;;;;;15.98;6.35;;;6.10;99.90;;;;;;4965928;28;20142;-78
2022/10/11 07:36:09;;;;;;;13.90;6.50;;;6.10;99.90;;;;;;4946639;28;20574;-77
2022/10/11 07:38:37;;;;;;;15.15;6.70;;;6.10;99.90;;;;;;4946856;28;20123;-76
2022/10/11 07:41:06;;;;;;;17.95;7.25;;;6.20;99.90;;;;;;4938809;29;20042;-77
2022/10/11 07:43:31;;;;;;;17.80;7.50;;;6.20;99.90;;;;;;4953654;28;20089;-75
2022/10/11 07:46:02;;;;;;;17.23;8.32;;;6.30;99.90;;;;;;4946327;29;20039;-75
2022/10/11 07:48:32;;;;;;;18.70;8.65;;;6.40;99.90;;;;;;4941295;29;20103;-74
2022/10/11 07:51:05;;;;;;;23.10;9.75;;;6.50;99.90;;;;;;4936741;29;20039;-76
2022/10/11 07:53:31;;;;;;;24.23;9.85;;;6.70;99.90;;;;;;4948310;29;20449;-76
2022/10/11 07:56:00;;;;;;;20.95;9.70;;;6.80;99.90;;;;;;4934566;29;20039;-77
2022/10/11 07:58:26;;;;;;;19.27;8.05;;;7.00;99.90;;;;;;4953858;29;20051;-77
2022/10/11 08:00:53;;;;;;;24.52;9.13;;;7.10;99.90;;;;;;4938213;29;20039;-77
2022/10/11 08:03:18;;;;;;;17.15;8.82;;;7.10;99.90;;;;;;4937471;29;20086;-79
2022/10/11 08:05:44;;;;;;;20.35;8.55;;;7.20;99.90;;;;;;4938774;29;20039;-77
2022/10/11 08:08:10;;;;;;;18.88;7.63;;;7.30;99.90;;;;;;4954909;29;20040;-77
2022/10/11 08:10:40;;;;;;;15.32;6.57;;;7.40;99.90;;;;;;4954795;29;20047;-77
2022/10/11 08:13:05;;;;;;;20.80;7.82;;;7.40;99.90;;;;;;4934348;29;20036;-76
2022/10/11 08:15:31;;;;;;;18.10;6.95;;;7.40;99.90;;;;;;4949553;29;20042;-75
2022/10/11 08:17:57;;;;;;;14.68;6.30;;;7.50;99.90;;;;;;4936006;29;20093;-77
2022/10/11 08:20:22;;;;;;;21.30;7.50;;;7.50;99.90;;;;;;4943375;29;20503;-77
2022/10/11 08:22:48;;;;;;;19.27;8.02;;;7.60;99.90;;;;;;4938467;29;20055;-77
2022/10/11 08:25:14;;;;;;;24.60;8.57;;;7.60;99.90;;;;;;4950450;29;20402;-76
2022/10/11 08:27:39;;;;;;;21.88;9.77;;;7.70;99.90;;;;;;4947303;28;20035;-77
2022/10/11 08:30:05;;;;;;;15.57;8.57;;;7.80;99.90;;;;;;4943777;29;20035;-76
2022/10/11 08:32:31;;;;;;;25.55;10.13;;;7.80;99.90;;;;;;4929929;29;20419;-76
2022/10/11 08:34:57;;;;;;;16.60;8.30;;;7.90;99.90;;;;;;4943284;29;20050;-76
2022/10/11 08:37:22;;;;;;;13.85;7.88;;;8.00;99.90;;;;;;4947211;29;20128;-76
2022/10/11 08:39:48;;;;;;;16.35;8.45;;;8.10;99.90;;;;;;4931288;29;20039;-77
2022/10/11 08:42:51;;;;;;;18.20;8.23;;;8.20;99.90;;;;;;4944521;29;20031;-77
2022/10/11 08:45:29;;;;;;;16.85;8.30;;;8.40;99.90;;;;;;4947103;29;20039;-76
2022/10/11 08:48:05;;;;;;;23.15;8.70;;;8.50;99.90;;;;;;4949354;29;20090;-76
2022/10/11 08:50:31;;;;;;;16.67;7.80;;;8.60;99.90;;;;;;4934124;29;20117;-77
2022/10/11 08:53:05;;;;;;;17.10;7.57;;;8.70;99.90;;;;;;4935482;29;20410;-77
2022/10/11 08:55:38;;;;;;;30.70;10.15;;;8.90;99.90;;;;;;4950432;29;20035;-76
2022/10/11 08:58:04;;;;;;;18.10;8.20;;;9.00;99.90;;;;;;4935431;28;20068;-77
2022/10/11 09:00:34;;;;;;;12.60;6.70;;;9.20;99.90;;;;;;4949578;29;20487;-76
2022/10/11 09:03:33;;;;;;;14.68;6.35;;;9.40;99.90;;;;;;4953309;29;20047;-76
2022/10/11 09:06:24;;;;;;;13.43;5.72;;;9.50;99.90;;;;;;4952806;29;20593;-77
2022/10/11 09:09:17;;;;;;;13.02;5.63;;;9.70;99.90;;;;;;4953067;29;20050;-76
2022/10/11 09:12:08;;;;;;;16.48;5.80;;;10.00;99.90;;;;;;4952898;29;20047;-77
2022/10/11 09:15:09;;;;;;;15.70;5.80;;;10.30;99.90;;;;;;4936235;29;20134;-76
2022/10/11 09:17:44;;;;;;;14.23;4.50;;;10.40;99.90;;;;;;4944727;29;20040;-77
2022/10/11 09:20:22;;;;;;;11.70;4.53;;;10.60;99.90;;;;;;4933669;29;20139;-77
2022/10/11 09:23:09;;;;;;;11.73;4.45;;;10.70;99.90;;;;;;4933812;29;20163;-76
2022/10/11 09:25:45;;;;;;;11.88;3.70;;;10.80;99.90;;;;;;4931324;29;20039;-76
2022/10/11 09:28:49;;;;;;;9.05;3.63;;;10.90;99.90;;;;;;4952686;29;20031;-75
2022/10/11 09:31:15;;;;;;;13.27;3.75;;;11.10;99.90;;;;;;4935501;29;20043;-76
2022/10/11 09:33:50;;;;;;;14.93;4.32;;;11.20;99.90;;;;;;4948622;29;20121;-76
2022/10/11 09:36:38;;;;;;;14.43;3.88;;;11.30;99.90;;;;;;4927623;29;20039;-76
2022/10/11 09:39:26;;;;;;;9.27;2.97;;;11.30;99.90;;;;;;4952449;28;20463;-76
2022/10/11 09:42:01;;;;;;;11.10;2.97;;;11.50;99.90;;;;;;4952618;29;20054;-76
2022/10/11 09:44:31;;;;;;;15.85;3.20;;;11.50;99.90;;;;;;4952836;29;20047;-76
2022/10/11 09:46:57;;;;;;;13.00;2.83;;;11.50;99.90;;;;;;4951356;29;20027;-76
2022/10/11 09:49:39;;;;;;;11.32;2.75;;;11.60;99.90;;;;;;4952362;29;20039;-76
2022/10/11 09:52:13;;;;;;;15.20;3.53;;;11.70;99.90;;;;;;4952686;29;20411;-76
2022/10/11 09:54:51;;;;;;;12.02;3.17;;;11.90;99.90;;;;;;4952487;29;20051;-76
2022/10/11 09:57:29;;;;;;;10.18;2.92;;;12.00;99.90;;;;;;4950684;29;20085;-76
2022/10/11 10:00:22;;;;;;;9.45;3.33;;;12.10;99.90;;;;;;4943559;29;20170;-76
2022/10/11 10:02:50;;;;;;;10.82;2.45;;;12.30;99.90;;;;;;4936025;29;20396;-77
2022/10/11 10:05:22;;;;;;;12.02;2.30;;;12.50;99.90;;;;;;4952306;29;20122;-76
2022/10/11 10:08:21;;;;;;;11.80;2.35;;;12.60;99.90;;;;;;4952106;29;20043;-76
2022/10/11 10:11:08;;;;;;;10.13;1.98;;;12.80;99.90;;;;;;4952409;29;20402;-76
2022/10/11 10:13:45;;;;;;;12.45;1.83;;;12.90;99.90;;;;;;4943574;29;20049;-77
2022/10/11 10:16:26;;;;;;;8.75;1.83;;;13.00;99.90;;;;;;4952205;29;20047;-77
2022/10/11 10:18:55;;;;;;;8.93;1.58;;;13.10;99.90;;;;;;4951356;29;20035;-77
2022/10/11 10:21:32;;;;;;;8.07;1.67;;;13.20;99.90;;;;;;4949772;29;20027;-78
2022/10/11 10:24:02;;;;;;;9.85;1.95;;;13.50;99.90;;;;;;4946661;29;20124;-77
2022/10/11 10:26:29;;;;;;;7.60;1.60;;;13.70;99.90;;;;;;4951292;29;20031;-76
2022/10/11 10:29:19;;;;;;;15.98;2.53;;;13.90;99.90;;;;;;4935249;29;20035;-77
2022/10/11 10:31:53;;;;;;;6.97;1.40;;;14.00;99.90;;;;;;4930825;28;20048;-80
2022/10/11 10:34:25;;;;;;;10.95;2.08;;;14.10;99.90;;;;;;4942913;28;20039;-78
2022/10/11 10:36:55;;;;;;;8.98;2.08;;;14.30;99.90;;;;;;4952007;29;20066;-80
2022/10/11 10:39:39;;;;;;;6.35;1.27;;;14.50;99.90;;;;;;4946475;28;20043;-78
2022/10/11 10:42:13;;;;;;;6.18;1.70;;;14.80;99.90;;;;;;4949783;29;20450;-78
2022/10/11 10:44:39;;;;;;;7.85;1.60;;;14.90;99.90;;;;;;4935728;29;20036;-78
2022/10/11 10:47:18;;;;;;;13.02;2.15;;;15.10;99.90;;;;;;4951377;28;20204;-79
2022/10/11 10:49:54;;;;;;;9.60;1.80;;;15.30;99.90;;;;;;4950254;28;20035;-79
2022/10/11 10:52:19;;;;;;;10.45;1.92;;;15.40;99.90;;;;;;4954575;28;20053;-78
2022/10/11 10:55:27;;;;;;;9.20;2.05;;;15.50;99.90;;;;;;4931804;29;20506;-78
2022/10/11 10:58:09;;;;;;;8.00;1.23;;;15.50;99.90;;;;;;4955072;28;20051;-79
2022/10/11 11:00:54;;;;;;;6.80;1.73;;;15.60;99.90;;;;;;4943103;28;20054;-78
2022/10/11 11:03:21;;;;;;;9.52;1.80;;;15.70;99.90;;;;;;4937210;29;20039;-78
2022/10/11 11:05:59;;;;;;;6.72;1.63;;;15.90;99.90;;;;;;4949665;28;20090;-78
2022/10/11 11:08:54;;;;;;;7.28;1.35;;;15.90;99.90;;;;;;4962559;28;20039;-78
2022/10/11 11:11:23;;;;;;;9.77;2.00;;;16.00;99.90;;;;;;4962371;28;20186;-78
2022/10/11 11:14:12;;;;;;;5.90;1.40;;;16.10;99.90;;;;;;4954246;28;20101;-78
2022/10/11 11:16:59;;;;;;;5.97;1.55;;;16.20;99.90;;;;;;4946815;28;20055;-78
2022/10/11 11:19:40;;;;;;;6.10;1.60;;;16.40;99.90;;;;;;4934044;29;20039;-78
2022/10/11 11:22:22;;;;;;;7.82;1.48;;;16.60;99.90;;;;;;4930675;29;20039;-77
2022/10/11 11:25:00;;;;;;;5.10;1.50;;;16.80;99.90;;;;;;4936314;29;20047;-77
2022/10/11 11:27:56;;;;;;;7.43;1.40;;;17.00;99.90;;;;;;4934560;29;20119;-77
2022/10/11 11:30:39;;;;;;;8.02;1.30;;;17.30;99.90;;;;;;4962976;28;20035;-77
2022/10/11 11:33:13;;;;;;;12.60;2.22;;;17.30;99.90;;;;;;4952856;28;20163;-77
2022/10/11 11:35:43;;;;;;;7.78;1.73;;;17.30;99.90;;;;;;4936499;29;20039;-77
2022/10/11 11:38:13;;;;;;;9.45;1.73;;;17.50;99.90;;;;;;4946651;28;20050;-77
2022/10/11 11:40:44;;;;;;;7.97;1.60;;;17.90;99.90;;;;;;4925460;28;20039;-77
2022/10/11 11:43:32;;;;;;;8.05;1.25;;;18.20;99.90;;;;;;4935851;29;20106;-77
2022/10/11 11:46:14;;;;;;;5.72;1.58;;;18.20;99.90;;;;;;4953800;29;20031;-77
2022/10/11 11:48:41;;;;;;;6.43;1.48;;;18.30;99.90;;;;;;4934661;29;20081;-77
2022/10/11 11:51:33;;;;;;;8.40;1.50;;;18.20;99.90;;;;;;4944781;29;20101;-76
2022/10/11 11:54:49;;;;;;;9.27;1.60;;;18.20;99.90;;;;;;4938329;29;20274;-77
2022/10/11 11:57:31;;;;;;;7.03;1.65;;;18.10;99.90;;;;;;4971256;28;20038;-77
2022/10/11 12:00:12;;;;;;;8.82;1.50;;;18.00;99.90;;;;;;4989924;28;20081;-78
2022/10/11 12:02:44;;;;;;;7.15;1.40;;;17.90;99.90;;;;;;4955303;28;20083;-78
2022/10/11 12:05:12;;;;;;;4.95;1.35;;;17.80;99.90;;;;;;4950686;28;20047;-77
2022/10/11 12:07:59;;;;;;;8.68;1.33;;;17.70;99.90;;;;;;4943386;28;20040;-79
2022/10/11 12:10:25;;;;;;;6.25;1.60;;;17.70;99.90;;;;;;4943601;29;20038;-77
2022/10/11 12:13:11;;;;;;;7.05;1.35;;;17.60;99.90;;;;;;4935161;29;20098;-77
2022/10/11 12:15:37;;;;;;;7.10;1.60;;;17.60;99.90;;;;;;4935374;29;20351;-77
2022/10/11 12:18:13;;;;;;;7.78;1.80;;;17.60;99.90;;;;;;4935275;29;20043;-78
2022/10/11 12:20:40;;;;;;;10.18;1.85;;;17.50;99.90;;;;;;4951718;29;20045;-77
2022/10/11 12:23:28;;;;;;;8.10;1.50;;;17.40;99.90;;;;;;4943908;29;20109;-77
2022/10/11 12:26:32;;;;;;;8.18;1.27;;;17.30;99.90;;;;;;4937795;29;20039;-78
2022/10/11 12:29:17;;;;;;;6.28;1.42;;;17.10;99.90;;;;;;4948729;29;20561;-78
2022/10/11 12:31:58;;;;;;;9.60;1.48;;;16.80;99.90;;;;;;4938884;28;20058;-76
2022/10/11 12:34:35;;;;;;;6.35;1.02;;;16.50;99.90;;;;;;4951974;29;20047;-77
2022/10/11 12:37:30;;;;;;;6.72;0.95;;;16.00;99.90;;;;;;4936680;29;20383;-77
2022/10/11 12:39:58;;;;;;;6.13;1.15;;;15.50;99.90;;;;;;4934489;29;20047;-77
2022/10/11 12:42:27;;;;;;;5.88;1.35;;;15.40;99.90;;;;;;4941953;29;20089;-77
2022/10/11 12:45:16;;;;;;;6.93;1.20;;;15.50;99.90;;;;;;4950204;28;20102;-77
2022/10/11 12:47:47;;;;;;;5.65;1.23;;;15.80;99.90;;;;;;4946324;29;20070;-77
2022/10/11 12:50:29;;;;;;;6.43;1.40;;;16.00;99.90;;;;;;4936860;29;20046;-77
2022/10/11 12:53:17;;;;;;;8.00;1.30;;;16.40;99.90;;;;;;4953427;28;20134;-77
2022/10/11 12:55:57;;;;;;;4.93;1.20;;;16.70;99.90;;;;;;4945284;29;20089;-78
2022/10/11 12:58:40;;;;;;;7.22;1.30;;;16.90;99.90;;;;;;4928805;29;20044;-78
2022/10/11 13:01:10;;;;;;;6.85;1.10;;;16.80;99.90;;;;;;4948615;29;20043;-78
2022/10/11 13:03:40;;;;;;;6.65;1.40;;;16.60;99.90;;;;;;4932421;29;20040;-78
2022/10/11 13:06:25;;;;;;;6.55;1.35;;;16.40;99.90;;;;;;4938454;29;20047;-77
2022/10/11 13:09:26;;;;;;;5.13;1.02;;;16.20;99.90;;;;;;4951822;29;20039;-78
2022/10/11 13:11:54;;;;;;;7.82;1.20;;;16.00;99.90;;;;;;4936819;29;20431;-79
2022/10/11 13:14:24;;;;;;;7.90;1.75;;;15.60;99.90;;;;;;4934071;29;20179;-77